createdAt,value
2016-12-15T07:36:10.247Z,31.4
2016-12-15T07:37:10.220Z,31.4
2016-12-15T07:38:10.526Z,31.4
2016-12-15T07:39:10.441Z,31.4
2016-12-15T07:40:09.610Z,31
2016-12-15T07:41:11.248Z,30.7
2016-12-15T07:42:10.636Z,30.5
2016-12-15T07:43:10.623Z,30.4
2016-12-15T07:44:13.052Z,30.2
2016-12-15T07:45:10.698Z,30.1
2016-12-15T07:46:09.762Z,30
2016-12-15T07:47:10.872Z,30
2016-12-15T07:48:11.429Z,30
2016-12-15T07:49:10.932Z,30.2
2016-12-15T07:50:10.998Z,30.3
2016-12-15T07:51:10.039Z,30.4
2016-12-15T07:52:10.628Z,30.4
2016-12-15T07:53:12.510Z,30.4
2016-12-15T07:54:11.309Z,30.4
2016-12-15T07:55:11.245Z,30.4
2016-12-15T07:56:11.405Z,30.4
2016-12-15T07:57:11.736Z,30.4
2016-12-15T07:58:10.410Z,30.4
2016-12-15T07:59:12.028Z,30.4
2016-12-15T08:00:10.493Z,30.4
2016-12-15T08:01:10.570Z,30.4
2016-12-15T08:02:12.252Z,30.4
2016-12-15T08:03:11.818Z,30.4
2016-12-15T08:04:11.796Z,30.4
2016-12-15T08:05:12.612Z,30.4
2016-12-15T08:06:10.819Z,30.3
2016-12-15T08:07:12.353Z,30.3
2016-12-15T08:08:11.755Z,30.3
2016-12-15T08:09:11.037Z,30.4
2016-12-15T08:10:12.965Z,30.5
2016-12-15T08:11:11.118Z,30.5
2016-12-15T08:12:12.244Z,30.5
2016-12-15T08:13:11.168Z,30.5
2016-12-15T08:14:13.081Z,30.6
2016-12-15T08:15:12.092Z,30.6
2016-12-15T08:16:12.995Z,30.5
2016-12-15T08:17:12.508Z,30.6
2016-12-15T08:18:15.309Z,30.5
2016-12-15T08:19:13.339Z,30.5
2016-12-15T08:20:14.964Z,30.5
2016-12-15T08:21:16.071Z,30.5
2016-12-15T08:22:16.209Z,30.5
2016-12-15T08:23:12.859Z,30.5
2016-12-15T08:24:12.876Z,30.5
2016-12-15T08:25:11.955Z,30.5
2016-12-15T08:26:14.093Z,30.5
2016-12-15T08:27:12.881Z,30.5
2016-12-15T08:28:13.570Z,30.5
2016-12-15T08:29:12.140Z,30.5
2016-12-15T08:30:12.116Z,30.5
2016-12-15T08:31:13.283Z,30.5
2016-12-15T08:32:13.342Z,30.5
2016-12-15T08:33:13.402Z,30.5
2016-12-15T08:34:13.382Z,30.5
2016-12-15T08:35:13.473Z,30.5
2016-12-15T08:36:12.466Z,30.5
2016-12-15T08:37:12.510Z,30.5
2016-12-15T08:38:13.686Z,30.5
2016-12-15T08:39:13.730Z,30.5
2016-12-15T08:40:13.777Z,30.5
2016-12-15T08:41:12.732Z,30.5
2016-12-15T08:42:12.638Z,30.5
2016-12-15T08:43:13.423Z,30.5
2016-12-15T08:44:13.962Z,30.5
2016-12-15T08:45:16.173Z,30.5
2016-12-15T08:46:14.663Z,30.5
2016-12-15T08:47:12.980Z,30.5
2016-12-15T08:48:14.027Z,30.5
2016-12-15T08:49:12.989Z,30.5
2016-12-15T08:50:14.594Z,30.5
2016-12-15T08:51:13.291Z,30.5
2016-12-15T08:52:15.257Z,30.5
2016-12-15T08:53:16.575Z,30.5
2016-12-15T08:54:14.214Z,30.5
2016-12-15T08:55:14.399Z,30.5
2016-12-15T08:56:14.542Z,30.6
2016-12-15T08:57:14.613Z,30.5
2016-12-15T08:58:13.503Z,30.5
2016-12-15T08:59:14.589Z,30.5
2016-12-15T09:00:14.102Z,30.5
2016-12-15T09:01:14.693Z,30.5
2016-12-15T09:02:14.654Z,30.5
2016-12-15T09:03:15.910Z,30.5
2016-12-15T09:04:13.756Z,30.5
2016-12-15T09:05:16.169Z,30.5
2016-12-15T09:06:15.615Z,30.5
2016-12-15T09:07:16.259Z,30.5
2016-12-15T09:08:14.513Z,30.5
2016-12-15T09:09:14.699Z,30.5
2016-12-15T09:10:14.280Z,30.5
2016-12-15T09:11:15.387Z,30.5
2016-12-15T09:12:16.007Z,30.5
2016-12-15T09:13:15.283Z,30.5
2016-12-15T09:14:20.677Z,30.5
2016-12-15T09:15:15.929Z,30.5
2016-12-15T09:16:21.807Z,30.5
2016-12-15T09:17:17.129Z,30.4
2016-12-15T09:18:17.612Z,30.4
2016-12-15T09:19:19.022Z,30.5
2016-12-15T09:20:22.233Z,30.5
2016-12-15T09:21:21.849Z,30.5
2016-12-15T09:22:19.302Z,30.5
2016-12-15T09:23:17.744Z,30.5
2016-12-15T09:24:16.975Z,30.5
2016-12-15T09:25:16.649Z,30.5
2016-12-15T09:26:17.026Z,30.5
2016-12-15T09:27:21.315Z,30.4
2016-12-15T09:28:15.836Z,30.5
2016-12-15T09:29:20.073Z,30.4
2016-12-15T09:30:16.967Z,30.5
2016-12-15T09:31:17.427Z,30.5
2016-12-15T09:32:16.978Z,30.4
2016-12-15T09:33:16.219Z,30.4
2016-12-15T09:34:19.353Z,30.4
2016-12-15T09:35:20.091Z,30.4
2016-12-15T09:36:16.318Z,30.4
2016-12-15T09:37:16.493Z,30.4
2016-12-15T09:38:17.314Z,30.4
2016-12-15T09:39:17.479Z,30.5
2016-12-15T09:40:17.502Z,30.4
2016-12-15T09:41:15.500Z,30.5
2016-12-15T09:42:18.903Z,30.5
2016-12-15T09:43:19.795Z,30.5
2016-12-15T09:44:19.552Z,30.5
2016-12-15T09:45:17.994Z,30.5
2016-12-15T09:46:19.170Z,30.5
2016-12-15T09:47:18.521Z,30.5
2016-12-15T09:48:19.542Z,30.5
2016-12-15T09:49:17.988Z,30.5
2016-12-15T09:50:18.760Z,30.5
2016-12-15T09:51:21.770Z,30.5
2016-12-15T09:52:17.880Z,30.6
2016-12-15T09:53:18.490Z,30.6
2016-12-15T09:54:16.891Z,30.7
2016-12-15T09:55:17.530Z,30.7
2016-12-15T09:56:17.432Z,30.6
2016-12-15T09:57:19.811Z,30.7
2016-12-15T09:58:18.678Z,30.7
2016-12-15T09:59:18.156Z,30.7
2016-12-15T10:00:18.265Z,30.7
2016-12-15T10:01:20.385Z,30.7
2016-12-15T10:02:20.650Z,30.7
2016-12-15T10:03:17.359Z,30.7
2016-12-15T10:04:17.291Z,30.7
2016-12-15T10:05:19.906Z,30.7
2016-12-15T10:06:18.217Z,30.7
2016-12-15T10:07:20.775Z,30.7
2016-12-15T10:08:19.710Z,30.7
2016-12-15T10:09:26.994Z,30.7
2016-12-15T10:10:23.517Z,30.6
2016-12-15T10:11:21.351Z,30.6
2016-12-15T10:12:20.897Z,30.6
2016-12-15T10:13:17.819Z,30.6
2016-12-15T10:14:19.275Z,30.6
2016-12-15T10:15:17.487Z,30.6
2016-12-15T10:16:20.083Z,30.5
2016-12-15T10:17:21.362Z,30.5
2016-12-15T10:18:20.619Z,30.6
2016-12-15T10:19:19.282Z,30.6
2016-12-15T10:20:19.545Z,30.6
2016-12-15T10:21:21.809Z,30.5
2016-12-15T10:22:20.307Z,30.6
2016-12-15T10:23:18.538Z,30.6
2016-12-15T10:24:19.595Z,30.6
2016-12-15T10:25:20.270Z,30.6
2016-12-15T10:26:20.907Z,30.6
2016-12-15T10:27:21.938Z,30.6
2016-12-15T10:28:21.926Z,30.7
2016-12-15T10:29:21.907Z,30.7
2016-12-15T10:30:18.167Z,30.7
2016-12-15T10:31:18.245Z,30.7
2016-12-15T10:32:23.452Z,30.8
2016-12-15T10:33:20.599Z,30.8
2016-12-15T10:34:21.401Z,30.8
2016-12-15T10:35:20.213Z,30.7
2016-12-15T10:36:21.652Z,30.7
2016-12-15T10:37:18.549Z,30.7
2016-12-15T10:38:20.440Z,30.7
2016-12-15T10:39:21.463Z,30.7
2016-12-15T10:40:20.535Z,30.7
2016-12-15T10:41:20.473Z,30.7
2016-12-15T10:42:22.041Z,30.7
2016-12-15T10:43:20.825Z,30.8
2016-12-15T10:44:22.421Z,30.8
2016-12-15T10:45:21.696Z,30.7
2016-12-15T10:46:20.897Z,30.7
2016-12-15T10:47:22.897Z,30.7
2016-12-15T10:48:21.063Z,30.8
2016-12-15T10:49:30.835Z,30.9
2016-12-15T10:50:25.506Z,31
2016-12-15T10:51:23.838Z,31
2016-12-15T10:52:26.006Z,30.9
2016-12-15T10:53:25.381Z,30.9
2016-12-15T10:54:26.957Z,30.9
2016-12-15T10:55:22.474Z,30.9
2016-12-15T10:56:22.427Z,30.9
2016-12-15T10:57:25.038Z,30.9
2016-12-15T10:58:24.245Z,31
2016-12-15T10:59:21.051Z,31
2016-12-15T11:00:20.919Z,31
2016-12-15T11:01:22.491Z,31
2016-12-15T11:02:21.585Z,31
2016-12-15T11:03:21.480Z,31
2016-12-15T11:04:21.979Z,31
2016-12-15T11:05:22.885Z,31
2016-12-15T11:06:23.509Z,31
2016-12-15T11:07:21.166Z,31.1
2016-12-15T11:08:20.259Z,31.1
2016-12-15T11:09:20.777Z,31.1
2016-12-15T11:10:23.000Z,31.1
2016-12-15T11:11:22.084Z,31.1
2016-12-15T11:12:22.237Z,31.1
2016-12-15T11:13:23.085Z,31.2
2016-12-15T11:14:20.950Z,31.3
2016-12-15T11:15:21.989Z,31.3
2016-12-15T11:16:21.239Z,31.3
2016-12-15T11:17:22.152Z,31.3
2016-12-15T11:18:22.156Z,31.3
2016-12-15T11:19:27.653Z,31.3
2016-12-15T11:20:23.628Z,31.2
2016-12-15T11:21:25.955Z,31.3
2016-12-15T11:22:24.909Z,31.3
2016-12-15T11:23:23.182Z,31.4
2016-12-15T11:24:31.803Z,31.4
2016-12-15T11:25:23.068Z,31.4
2016-12-15T11:26:21.925Z,31.4
2016-12-15T11:27:24.240Z,31.4
2016-12-15T11:28:21.259Z,31.4
2016-12-15T11:29:23.006Z,31.4
2016-12-15T11:30:22.768Z,31.4
2016-12-15T11:31:21.341Z,31.4
2016-12-15T11:32:22.598Z,31.4
2016-12-15T11:33:23.166Z,31.4
2016-12-15T11:34:21.461Z,31.4
2016-12-15T11:35:22.600Z,31.4
2016-12-15T11:36:22.682Z,31.4
2016-12-15T11:37:22.352Z,31.4
2016-12-15T11:38:23.951Z,31.4
2016-12-15T11:39:22.899Z,31.4
2016-12-15T11:40:37.352Z,31.4
2016-12-15T11:41:45.823Z,31.4
2016-12-15T11:42:25.033Z,31.4
2016-12-15T11:43:24.641Z,31.5
2016-12-15T11:44:22.019Z,31.5
2016-12-15T11:45:24.563Z,31.4
2016-12-15T11:46:24.422Z,31
2016-12-15T11:47:23.460Z,30.5
2016-12-15T11:48:23.289Z,29.9
2016-12-15T11:49:24.581Z,29.4
2016-12-15T11:50:23.365Z,29
2016-12-15T11:51:24.842Z,28.7
2016-12-15T11:52:28.800Z,28.4
2016-12-15T11:53:23.711Z,28.1
2016-12-15T11:54:25.673Z,27.9
2016-12-15T11:55:26.633Z,27.7
2016-12-15T11:56:29.076Z,27.5
2016-12-15T11:57:28.306Z,27.4
2016-12-15T11:58:25.343Z,27.3
2016-12-15T11:59:26.657Z,27.3
2016-12-15T12:00:25.756Z,27.2
2016-12-15T12:01:26.120Z,27.3
2016-12-15T12:02:26.257Z,27.3
2016-12-15T12:03:24.816Z,27.2
2016-12-15T12:04:24.471Z,27.3
2016-12-15T12:05:26.018Z,27.3
2016-12-15T12:06:26.600Z,27.3
2016-12-15T12:07:23.945Z,27.3
2016-12-15T12:08:29.248Z,27.3
2016-12-15T12:09:24.322Z,27.3
2016-12-15T12:10:25.458Z,27.3
2016-12-15T12:11:23.445Z,27.2
2016-12-15T12:12:26.344Z,27.2
2016-12-15T12:13:25.881Z,27.2
2016-12-15T12:14:25.289Z,27.2
2016-12-15T12:15:26.537Z,27.2
2016-12-15T12:16:24.170Z,27.1
2016-12-15T12:17:23.549Z,27.1
2016-12-15T12:18:24.294Z,27.1
2016-12-15T12:19:24.260Z,27.1
2016-12-15T12:20:23.735Z,27.1
2016-12-15T12:21:23.805Z,27.1
2016-12-15T12:22:25.228Z,27.1
2016-12-15T12:23:25.552Z,27.1
2016-12-15T12:24:25.043Z,27.1
2016-12-15T12:25:23.923Z,27.1
2016-12-15T12:26:24.041Z,27.1
2016-12-15T12:27:24.052Z,27.1
2016-12-15T12:28:25.759Z,27.2
2016-12-15T12:29:24.826Z,27.2
2016-12-15T12:30:24.956Z,27.2
2016-12-15T12:31:25.283Z,27.2
2016-12-15T12:32:25.220Z,27.2
2016-12-15T12:33:24.792Z,27.2
2016-12-15T12:34:27.164Z,27.2
2016-12-15T12:35:24.320Z,27.2
2016-12-15T12:36:26.000Z,27.2
2016-12-15T12:37:25.539Z,27.2
2016-12-15T12:38:28.165Z,27.2
2016-12-15T12:39:25.637Z,27.2
2016-12-15T12:40:24.639Z,27.3
2016-12-15T12:41:26.209Z,27.3
2016-12-15T12:42:25.702Z,27.3
2016-12-15T12:43:25.767Z,27.3
2016-12-15T12:44:26.247Z,27.3
2016-12-15T12:45:24.968Z,27.3
2016-12-15T12:46:25.597Z,27.3
2016-12-15T12:47:26.750Z,27.3
2016-12-15T12:48:26.385Z,27.4
2016-12-15T12:49:26.302Z,27.4
2016-12-15T12:50:26.262Z,27.4
2016-12-15T12:51:26.210Z,27.4
2016-12-15T12:52:25.790Z,27.5
2016-12-15T12:53:29.409Z,27.5
2016-12-15T12:54:26.445Z,27.5
2016-12-15T12:55:25.242Z,27.5
2016-12-15T12:56:25.286Z,27.5
2016-12-15T12:57:26.139Z,27.6
2016-12-15T12:58:29.265Z,27.6
2016-12-15T12:59:27.092Z,27.6
2016-12-15T13:00:26.703Z,27.5
2016-12-15T13:01:27.384Z,27.1
2016-12-15T13:02:26.873Z,26.8
2016-12-15T13:03:26.411Z,26.5
2016-12-15T13:04:36.722Z,26.4
2016-12-15T13:05:27.131Z,26.3
2016-12-15T13:06:27.145Z,26.1
2016-12-15T13:07:31.105Z,26.1
2016-12-15T13:08:26.590Z,26.1
2016-12-15T13:09:29.952Z,26.1
2016-12-15T13:10:27.650Z,26.2
2016-12-15T13:11:26.996Z,26.2
2016-12-15T13:12:27.804Z,26.1
2016-12-15T13:13:26.078Z,26
2016-12-15T13:14:27.941Z,26
2016-12-15T13:15:28.723Z,25.9
2016-12-15T13:16:28.463Z,25.9
2016-12-15T13:17:26.988Z,25.8
2016-12-15T13:18:28.692Z,25.8
2016-12-15T13:19:28.015Z,25.9
2016-12-15T13:20:27.735Z,25.9
2016-12-15T13:21:27.710Z,25.9
2016-12-15T13:22:31.759Z,25.9
2016-12-15T13:23:27.732Z,25.9
2016-12-15T13:24:27.156Z,25.9
2016-12-15T13:25:28.402Z,25.8
2016-12-15T13:26:28.865Z,25.7
2016-12-15T13:27:27.862Z,25.7
2016-12-15T13:28:29.947Z,25.6
2016-12-15T13:29:27.974Z,25.6
2016-12-15T13:30:30.591Z,25.4
2016-12-15T13:31:29.041Z,25.4
2016-12-15T13:32:27.197Z,25.3
2016-12-15T13:33:27.066Z,25.3
2016-12-15T13:34:28.276Z,25.4
2016-12-15T13:35:29.503Z,25.3
2016-12-15T13:36:29.799Z,25.4
2016-12-15T13:37:29.638Z,25.3
2016-12-15T13:38:29.631Z,25.3
2016-12-15T13:39:28.352Z,25.4
2016-12-15T13:40:35.341Z,25.5
2016-12-15T13:41:33.278Z,25.5
2016-12-15T13:42:27.537Z,25.5
2016-12-15T13:43:28.692Z,25.5
2016-12-15T13:44:28.242Z,25.6
2016-12-15T13:45:29.006Z,25.6
2016-12-15T13:46:29.412Z,25.6
2016-12-15T13:47:29.372Z,25.6
2016-12-15T13:48:29.968Z,25.6
2016-12-15T13:49:29.169Z,25.7
2016-12-15T13:50:29.009Z,25.6
2016-12-15T13:51:30.146Z,25.7
2016-12-15T13:52:29.571Z,25.7
2016-12-15T13:53:29.679Z,25.8
2016-12-15T13:54:29.636Z,25.8
2016-12-15T13:55:28.024Z,25.9
2016-12-15T13:56:29.829Z,25.9
2016-12-15T13:57:30.461Z,25.9
2016-12-15T13:58:30.206Z,25.9
2016-12-15T13:59:28.197Z,25.9
2016-12-15T14:00:30.479Z,25.9
2016-12-15T14:01:29.220Z,25.9
2016-12-15T14:02:31.440Z,25.9
2016-12-15T14:03:30.678Z,25.9
2016-12-15T14:04:30.012Z,25.9
2016-12-15T14:05:29.503Z,25.9
2016-12-15T14:06:30.769Z,25.9
2016-12-15T14:07:32.673Z,25.9
2016-12-15T14:08:32.792Z,25.9
2016-12-15T14:09:29.465Z,25.9
2016-12-15T14:10:30.284Z,25.9
2016-12-15T14:11:30.522Z,25.9
2016-12-15T14:12:30.459Z,25.9
2016-12-15T14:13:29.967Z,25.9
2016-12-15T14:14:29.024Z,25.9
2016-12-15T14:15:33.416Z,25.9
2016-12-15T14:16:31.371Z,26
2016-12-15T14:17:30.380Z,26
2016-12-15T14:18:31.203Z,26
2016-12-15T14:19:31.780Z,26
2016-12-15T14:20:31.887Z,26
2016-12-15T14:21:34.818Z,26
2016-12-15T14:22:31.012Z,26
2016-12-15T14:23:31.267Z,26
2016-12-15T14:24:30.588Z,26.1
2016-12-15T14:25:31.279Z,26.1
2016-12-15T14:26:30.692Z,26.1
2016-12-15T14:27:29.611Z,26.1
2016-12-15T14:28:30.943Z,26.1
2016-12-15T14:29:31.421Z,26.1
2016-12-15T14:30:30.920Z,26.2
2016-12-15T14:31:30.958Z,26.2
2016-12-15T14:32:30.732Z,26.2
2016-12-15T14:33:31.076Z,26.2
2016-12-15T14:34:31.296Z,26.2
2016-12-15T14:35:30.698Z,26.2
2016-12-15T14:36:31.172Z,26.2
2016-12-15T14:37:31.343Z,26.2
2016-12-15T14:38:31.224Z,26.2
2016-12-15T14:39:32.022Z,26.2
2016-12-15T14:40:31.519Z,26.2
2016-12-15T14:41:31.528Z,26.1
2016-12-15T14:42:32.816Z,26.2
2016-12-15T14:43:31.831Z,26.2
2016-12-15T14:44:32.052Z,26.2
2016-12-15T14:45:30.613Z,26.2
2016-12-15T14:46:31.344Z,26.2
2016-12-15T14:47:32.628Z,26.2
2016-12-15T14:48:30.747Z,26.3
2016-12-15T14:49:31.397Z,26.3
2016-12-15T14:50:31.964Z,26.4
2016-12-15T14:51:31.844Z,26.4
2016-12-15T14:52:31.899Z,26.4
2016-12-15T14:53:32.789Z,26.5
2016-12-15T14:54:34.112Z,26.5
2016-12-15T14:55:32.062Z,26.5
2016-12-15T14:56:32.034Z,26.5
2016-12-15T14:57:31.242Z,26.5
2016-12-15T14:58:32.280Z,26.6
2016-12-15T14:59:32.254Z,26.6
2016-12-15T15:00:32.248Z,26.6
2016-12-15T15:01:32.394Z,26.6
2016-12-15T15:02:31.334Z,26.6
2016-12-15T15:03:31.266Z,26.6
2016-12-15T15:04:33.701Z,26.7
2016-12-15T15:05:32.452Z,26.7
2016-12-15T15:06:32.445Z,26.7
2016-12-15T15:07:32.092Z,26.7
2016-12-15T15:08:32.765Z,26.7
2016-12-15T15:09:33.352Z,26.7
2016-12-15T15:10:34.562Z,26.7
2016-12-15T15:11:33.364Z,26.7
2016-12-15T15:12:32.403Z,26.8
2016-12-15T15:13:32.546Z,26.8
2016-12-15T15:14:33.388Z,26.8
2016-12-15T15:15:32.352Z,26.8
2016-12-15T15:16:31.907Z,26.8
2016-12-15T15:17:33.096Z,26.8
2016-12-15T15:18:32.707Z,26.8
2016-12-15T15:19:33.077Z,26.8
2016-12-15T15:20:32.139Z,26.8
2016-12-15T15:21:32.173Z,26.9
2016-12-15T15:22:32.161Z,26.9
2016-12-15T15:23:32.836Z,26.9
2016-12-15T15:24:33.334Z,26.9
2016-12-15T15:25:35.253Z,26.9
2016-12-15T15:26:35.352Z,26.9
2016-12-15T15:27:32.467Z,26.9
2016-12-15T15:28:33.571Z,26.9
2016-12-15T15:29:33.648Z,27
2016-12-15T15:30:34.963Z,27
2016-12-15T15:31:32.727Z,27
2016-12-15T15:32:33.739Z,27
2016-12-15T15:33:33.808Z,27
2016-12-15T15:34:33.764Z,27
2016-12-15T15:35:33.490Z,27
2016-12-15T15:36:34.051Z,27
2016-12-15T15:37:33.981Z,27
2016-12-15T15:38:33.694Z,27
2016-12-15T15:39:33.087Z,27
2016-12-15T15:40:34.228Z,27.1
2016-12-15T15:41:34.518Z,27
2016-12-15T15:42:33.193Z,27.1
2016-12-15T15:43:33.289Z,27.1
2016-12-15T15:44:34.411Z,27.1
2016-12-15T15:45:34.290Z,27.1
2016-12-15T15:46:34.355Z,27.1
2016-12-15T15:47:35.924Z,27.1
2016-12-15T15:48:34.487Z,27.1
2016-12-15T15:49:33.577Z,27.1
2016-12-15T15:50:35.317Z,27.1
2016-12-15T15:51:34.622Z,27.2
2016-12-15T15:52:35.842Z,27.2
2016-12-15T15:53:34.711Z,27.2
2016-12-15T15:54:33.741Z,27.2
2016-12-15T15:55:34.779Z,27.2
2016-12-15T15:56:35.673Z,27.2
2016-12-15T15:57:33.949Z,27.2
2016-12-15T15:58:35.993Z,27.2
2016-12-15T15:59:33.986Z,27.2
2016-12-15T16:00:35.077Z,27.2
2016-12-15T16:01:34.211Z,27.2
2016-12-15T16:02:35.234Z,27.3
2016-12-15T16:03:35.218Z,27.3
2016-12-15T16:04:35.303Z,27.3
2016-12-15T16:05:34.255Z,27.3
2016-12-15T16:06:34.452Z,27.3
2016-12-15T16:07:35.543Z,27.3
2016-12-15T16:08:35.473Z,27.3
2016-12-15T16:09:35.526Z,27.3
2016-12-15T16:10:35.668Z,27.3
2016-12-15T16:11:35.620Z,27.3
2016-12-15T16:12:34.714Z,27.3
2016-12-15T16:13:36.410Z,27.3
2016-12-15T16:14:34.852Z,27.3
2016-12-15T16:15:36.494Z,27.3
2016-12-15T16:16:35.516Z,27.4
2016-12-15T16:17:35.043Z,27.4
2016-12-15T16:18:36.133Z,27.4
2016-12-15T16:19:36.013Z,27.4
2016-12-15T16:20:35.642Z,27.4
2016-12-15T16:21:35.084Z,27.4
2016-12-15T16:22:36.154Z,27.4
2016-12-15T16:23:35.815Z,27.4
2016-12-15T16:24:36.315Z,27.4
2016-12-15T16:25:37.080Z,27.4
2016-12-15T16:26:36.404Z,27.4
2016-12-15T16:27:36.440Z,27.5
2016-12-15T16:28:36.591Z,27.5
2016-12-15T16:29:36.630Z,27.5
2016-12-15T16:30:35.561Z,27.5
2016-12-15T16:31:35.603Z,27.5
2016-12-15T16:32:36.758Z,27.5
2016-12-15T16:33:35.788Z,27.5
2016-12-15T16:34:35.697Z,27.5
2016-12-15T16:35:36.786Z,27.5
2016-12-15T16:36:36.887Z,27.5
2016-12-15T16:37:36.342Z,27.6
2016-12-15T16:38:35.990Z,27.6
2016-12-15T16:39:37.824Z,27.6
2016-12-15T16:40:36.058Z,27.6
2016-12-15T16:41:35.977Z,27.6
2016-12-15T16:42:37.024Z,27.6
2016-12-15T16:43:36.087Z,27.6
2016-12-15T16:44:37.110Z,27.6
2016-12-15T16:45:37.208Z,27.6
2016-12-15T16:46:36.734Z,27.6
2016-12-15T16:47:37.277Z,27.6
2016-12-15T16:48:37.252Z,27.6
2016-12-15T16:49:37.433Z,27.7
2016-12-15T16:50:37.544Z,27.7
2016-12-15T16:51:38.012Z,27.7
2016-12-15T16:52:37.526Z,27.7
2016-12-15T16:53:36.471Z,27.7
2016-12-15T16:54:37.492Z,27.7
2016-12-15T16:55:37.558Z,27.7
2016-12-15T16:56:36.518Z,27.7
2016-12-15T16:57:36.662Z,27.7
2016-12-15T16:58:36.746Z,27.7
2016-12-15T16:59:37.824Z,27.7
2016-12-15T17:00:36.676Z,27.7
2016-12-15T17:01:37.888Z,27.7
2016-12-15T17:02:36.877Z,27.7
2016-12-15T17:03:38.540Z,27.7
2016-12-15T17:04:37.042Z,27.7
2016-12-15T17:05:37.083Z,27.8
2016-12-15T17:06:37.335Z,27.8
2016-12-15T17:07:37.136Z,27.8
2016-12-15T17:08:37.118Z,27.8
2016-12-15T17:09:38.316Z,27.8
2016-12-15T17:10:37.285Z,27.8
2016-12-15T17:11:37.314Z,27.8
2016-12-15T17:12:37.388Z,27.8
2016-12-15T17:13:40.471Z,27.8
2016-12-15T17:14:37.980Z,27.8
2016-12-15T17:15:37.677Z,27.8
2016-12-15T17:16:39.766Z,27.8
2016-12-15T17:17:37.733Z,27.8
2016-12-15T17:18:37.835Z,27.8
2016-12-15T17:19:39.599Z,27.8
2016-12-15T17:20:38.911Z,27.8
2016-12-15T17:21:40.342Z,27.8
2016-12-15T17:22:38.515Z,27.8
2016-12-15T17:23:38.061Z,27.8
2016-12-15T17:24:38.730Z,27.8
2016-12-15T17:25:39.201Z,27.8
2016-12-15T17:26:39.178Z,27.8
2016-12-15T17:27:39.269Z,27.9
2016-12-15T17:28:39.337Z,27.9
2016-12-15T17:29:39.380Z,27.9
2016-12-15T17:30:38.470Z,27.9
2016-12-15T17:31:39.142Z,27.9
2016-12-15T17:32:40.187Z,27.9
2016-12-15T17:33:39.009Z,27.9
2016-12-15T17:34:39.584Z,27.9
2016-12-15T17:35:40.586Z,27.9
2016-12-15T17:36:39.202Z,27.9
2016-12-15T17:37:38.646Z,27.9
2016-12-15T17:38:38.636Z,27.9
2016-12-15T17:39:38.761Z,27.9
2016-12-15T17:40:39.273Z,27.9
2016-12-15T17:41:39.930Z,27.9
2016-12-15T17:42:38.970Z,27.9
2016-12-15T17:43:38.953Z,27.9
2016-12-15T17:44:39.072Z,27.9
2016-12-15T17:45:40.827Z,27.9
2016-12-15T17:46:40.101Z,27.9
2016-12-15T17:47:40.115Z,27.9
2016-12-15T17:48:39.255Z,27.9
2016-12-15T17:49:40.196Z,27.9
2016-12-15T17:50:39.280Z,27.9
2016-12-15T17:51:40.311Z,27.9
2016-12-15T17:52:40.418Z,27.9
2016-12-15T17:53:40.440Z,27.9
2016-12-15T17:54:40.481Z,27.9
2016-12-15T17:55:40.563Z,27.9
2016-12-15T17:56:39.587Z,27.9
2016-12-15T17:57:40.588Z,27.9
2016-12-15T17:58:40.719Z,27.9
2016-12-15T17:59:39.650Z,28
2016-12-15T18:00:40.718Z,28
2016-12-15T18:01:39.792Z,28
2016-12-15T18:02:40.868Z,28
2016-12-15T18:03:39.857Z,28
2016-12-15T18:04:39.946Z,28
2016-12-15T18:05:41.137Z,28
2016-12-15T18:06:40.092Z,28
2016-12-15T18:07:41.745Z,28
2016-12-15T18:08:41.213Z,28
2016-12-15T18:09:41.229Z,28
2016-12-15T18:10:41.173Z,28
2016-12-15T18:11:40.265Z,28
2016-12-15T18:12:41.393Z,28
2016-12-15T18:13:40.330Z,28
2016-12-15T18:14:41.408Z,28
2016-12-15T18:15:41.431Z,28
2016-12-15T18:16:40.346Z,28
2016-12-15T18:17:40.407Z,28
2016-12-15T18:18:40.419Z,28
2016-12-15T18:19:41.551Z,28
2016-12-15T18:20:41.620Z,28
2016-12-15T18:21:41.633Z,28
2016-12-15T18:22:41.646Z,28
2016-12-15T18:23:40.707Z,28
2016-12-15T18:24:41.768Z,28
2016-12-15T18:25:40.866Z,28
2016-12-15T18:26:40.891Z,28
2016-12-15T18:27:40.937Z,28
2016-12-15T18:28:41.999Z,28.1
2016-12-15T18:29:40.978Z,28.1
2016-12-15T18:30:40.972Z,28.1
2016-12-15T18:31:42.092Z,28.1
2016-12-15T18:32:40.985Z,28.1
2016-12-15T18:33:41.114Z,28.1
2016-12-15T18:34:42.657Z,28.1
2016-12-15T18:35:41.061Z,28.1
2016-12-15T18:36:41.094Z,28.1
2016-12-15T18:37:42.330Z,28.1
2016-12-15T18:38:42.308Z,28.1
2016-12-15T18:39:41.229Z,28.1
2016-12-15T18:40:41.325Z,28.1
2016-12-15T18:41:42.524Z,28.1
2016-12-15T18:42:42.536Z,28.1
2016-12-15T18:43:42.578Z,28.1
2016-12-15T18:44:42.532Z,28.1
2016-12-15T18:45:42.544Z,28.1
2016-12-15T18:46:41.728Z,28.1
2016-12-15T18:47:42.714Z,28.1
2016-12-15T18:48:42.735Z,28.1
2016-12-15T18:49:42.812Z,28.1
2016-12-15T18:50:42.851Z,28.1
2016-12-15T18:51:42.698Z,28.1
2016-12-15T18:52:42.866Z,28.1
2016-12-15T18:53:42.870Z,28.1
2016-12-15T18:54:41.928Z,28.1
2016-12-15T18:55:41.837Z,28.1
2016-12-15T18:56:43.042Z,28.1
2016-12-15T18:57:42.094Z,28.1
2016-12-15T18:58:42.043Z,28.1
2016-12-15T18:59:42.054Z,28.1
2016-12-15T19:00:44.114Z,28.1
2016-12-15T19:01:43.170Z,28.1
2016-12-15T19:02:43.238Z,28.1
2016-12-15T19:03:43.230Z,28.1
2016-12-15T19:04:42.164Z,28.1
2016-12-15T19:05:42.264Z,28.1
2016-12-15T19:06:43.364Z,28.1
2016-12-15T19:07:43.345Z,28.1
2016-12-15T19:08:42.283Z,28.1
2016-12-15T19:09:43.400Z,28.1
2016-12-15T19:10:43.157Z,28.1
2016-12-15T19:11:43.479Z,28.1
2016-12-15T19:12:43.560Z,28.1
2016-12-15T19:13:43.686Z,28.1
2016-12-15T19:14:42.775Z,28.1
2016-12-15T19:15:42.846Z,28.1
2016-12-15T19:16:42.801Z,28.1
2016-12-15T19:17:43.902Z,28.1
2016-12-15T19:18:42.989Z,28.1
2016-12-15T19:19:42.961Z,28.1
2016-12-15T19:20:43.079Z,28.1
2016-12-15T19:21:44.264Z,28.1
2016-12-15T19:22:44.238Z,28.1
2016-12-15T19:23:43.188Z,28.1
2016-12-15T19:24:44.431Z,28.1
2016-12-15T19:25:44.342Z,28.1
2016-12-15T19:26:43.349Z,28.1
2016-12-15T19:27:44.450Z,28.1
2016-12-15T19:28:44.570Z,28.1
2016-12-15T19:29:43.659Z,28.1
2016-12-15T19:30:43.691Z,28.2
2016-12-15T19:31:44.794Z,28.2
2016-12-15T19:32:43.798Z,28.2
2016-12-15T19:33:43.728Z,28.2
2016-12-15T19:34:44.907Z,28.2
2016-12-15T19:35:43.816Z,28.2
2016-12-15T19:36:44.008Z,28.2
2016-12-15T19:37:43.958Z,28.2
2016-12-15T19:38:44.107Z,28.2
2016-12-15T19:39:45.134Z,28.2
2016-12-15T19:40:45.320Z,28.2
2016-12-15T19:41:45.270Z,28.2
2016-12-15T19:42:45.389Z,28.2
2016-12-15T19:43:44.402Z,28.2
2016-12-15T19:44:44.472Z,28.2
2016-12-15T19:45:45.523Z,28.2
2016-12-15T19:46:45.652Z,28.2
2016-12-15T19:47:46.236Z,28.2
2016-12-15T19:48:45.675Z,28.2
2016-12-15T19:49:44.784Z,28.2
2016-12-15T19:50:46.109Z,28.2
2016-12-15T19:51:44.726Z,28.2
2016-12-15T19:52:45.359Z,28.2
2016-12-15T19:53:45.902Z,28.2
2016-12-15T19:54:45.887Z,28.2
2016-12-15T19:55:45.964Z,28.2
2016-12-15T19:56:44.869Z,28.2
2016-12-15T19:57:44.963Z,28.2
2016-12-15T19:58:44.965Z,28.2
2016-12-15T19:59:45.044Z,28.2
2016-12-15T20:00:46.157Z,28.2
2016-12-15T20:01:46.202Z,28.2
2016-12-15T20:02:46.180Z,28.2
2016-12-15T20:03:45.187Z,28.2
2016-12-15T20:04:45.332Z,28.2
2016-12-15T20:05:46.259Z,28.2
2016-12-15T20:06:46.411Z,28.2
2016-12-15T20:07:46.455Z,28.2
2016-12-15T20:08:46.451Z,28.2
2016-12-15T20:09:45.375Z,28.2
2016-12-15T20:10:45.572Z,28.2
2016-12-15T20:11:46.695Z,28.2
2016-12-15T20:12:45.642Z,28.2
2016-12-15T20:13:46.797Z,28.2
2016-12-15T20:14:45.746Z,28.2
2016-12-15T20:15:46.851Z,28.2
2016-12-15T20:16:45.887Z,28.2
2016-12-15T20:17:47.010Z,28.2
2016-12-15T20:18:45.982Z,28.2
2016-12-15T20:19:46.183Z,28.2
2016-12-15T20:20:46.080Z,28.2
2016-12-15T20:21:46.153Z,28.2
2016-12-15T20:22:46.281Z,28.2
2016-12-15T20:23:46.352Z,28.2
2016-12-15T20:24:47.315Z,28.2
2016-12-15T20:25:46.379Z,28.2
2016-12-15T20:26:47.426Z,28.2
2016-12-15T20:27:47.451Z,28.2
2016-12-15T20:28:47.456Z,28.2
2016-12-15T20:29:46.540Z,28.2
2016-12-15T20:30:47.651Z,28.2
2016-12-15T20:31:47.631Z,28.2
2016-12-15T20:32:47.693Z,28.2
2016-12-15T20:33:47.757Z,28.2
2016-12-15T20:34:46.838Z,28.2
2016-12-15T20:35:47.882Z,28.2
2016-12-15T20:36:47.846Z,28.2
2016-12-15T20:37:46.874Z,28.2
2016-12-15T20:38:47.079Z,28.2
2016-12-15T20:39:48.106Z,28.2
2016-12-15T20:40:47.062Z,28.2
2016-12-15T20:41:47.085Z,28.2
2016-12-15T20:42:48.239Z,28.2
2016-12-15T20:43:47.250Z,28.2
2016-12-15T20:44:48.459Z,28.2
2016-12-15T20:45:47.311Z,28.2
2016-12-15T20:46:48.506Z,28.2
2016-12-15T20:47:47.513Z,28.2
2016-12-15T20:48:48.172Z,28.2
2016-12-15T20:49:48.625Z,28.2
2016-12-15T20:50:47.683Z,28.2
2016-12-15T20:51:47.731Z,28.2
2016-12-15T20:52:49.112Z,28.2
2016-12-15T20:53:47.678Z,28.3
2016-12-15T20:54:47.749Z,28.3
2016-12-15T20:55:48.935Z,28.3
2016-12-15T20:56:48.906Z,28.3
2016-12-15T20:57:49.069Z,28.3
2016-12-15T20:58:47.942Z,28.3
2016-12-15T20:59:49.068Z,28.3